EDT,Max TemperatureF,Mean TemperatureF,Min TemperatureF,Max Dew PointF,MeanDew PointF,Min DewpointF,Max Humidity, Mean Humidity, Min Humidity, Max Sea Level PressureIn, Mean Sea Level PressureIn, Min Sea Level PressureIn, Max VisibilityMiles, Mean VisibilityMiles, Min VisibilityMiles, Max Wind SpeedMPH, Mean Wind SpeedMPH, Max Gust SpeedMPH,PrecipitationIn, CloudCover, Events, WindDirDegrees
2013-6-1,86,82,77,75,74,72,94,82,70,30.06,30.03,30.00,10,10,5,18,10,25,0.04,5,Rain,101
2013-6-2,87,81,74,76,74,72,94,78,61,30.01,29.97,29.92,10,9,2,17,6,23,T,3,,165
2013-6-3,89,81,73,75,73,71,100,80,59,30.03,29.96,29.93,10,10,10,21,6,24,T,4,Thunderstorm,201
2013-6-4,84,79,74,75,73,67,94,76,58,30.06,30.02,29.96,10,10,6,13,3,23,0.06,7,Rain,201
2013-6-5,85,80,75,76,75,73,94,84,74,30.03,29.98,29.93,10,10,10,14,8,18,0.02,3,Rain,112
2013-6-6,83,78,73,77,74,71,94,87,79,29.93,29.83,29.76,10,6,0,26,11,39,2.74,6,Fog-Rain-Thunderstorm,175
2013-6-7,90,82,74,76,73,71,94,77,59,29.99,29.89,29.82,10,10,10,21,10,29,0.00,4,,205
2013-6-8,88,81,74,76,74,72,100,82,63,30.12,30.05,29.99,10,10,6,21,5,23,0.06,3,Rain-Thunderstorm,168
2013-6-9,86,79,72,76,73,71,94,80,65,30.14,30.10,30.06,10,10,10,20,9,23,0.00,1,,120
2013-6-10,88,83,78,76,75,73,91,80,68,30.11,30.08,30.04,10,10,10,18,10,25,0.00,1,,127
2013-6-11,88,81,74,77,75,71,97,83,68,30.09,30.07,30.04,10,10,3,18,5,21,0.00,3,,139
2013-6-12,89,81,73,79,74,69,100,82,63,30.09,30.07,30.04,10,8,0,14,4,16,0.04,1,Fog,114
2013-6-13,94,83,71,75,71,67,93,73,52,30.06,30.00,29.93,10,10,10,18,7,23,0.00,0,,214
2013-6-14,94,84,74,75,72,68,100,73,46,29.96,29.92,29.86,10,10,10,18,8,23,0.00,1,,253
2013-6-15,90,81,72,76,73,71,93,76,59,30.08,30.01,29.94,10,10,8,17,7,23,0.00,1,,73
2013-6-16,89,84,78,77,75,74,91,78,64,30.10,30.08,30.05,10,10,10,17,10,22,0.00,2,,104
2013-6-17,93,84,74,76,75,72,100,76,52,30.09,30.06,30.01,10,10,9,20,9,24,0.00,1,,154
2013-6-18,93,85,77,76,74,71,91,70,49,30.08,30.04,29.99,10,10,10,22,10,26,0.00,1,,164
2013-6-19,92,83,74,76,71,63,87,68,49,30.07,30.03,29.99,10,10,10,24,7,31,0.00,1,Thunderstorm,177
2013-6-20,93,83,73,76,73,69,100,78,56,30.11,30.08,30.04,10,9,1,13,4,15,0.38,2,Rain-Thunderstorm,206
2013-6-21,87,79,71,75,72,66,94,81,68,30.15,30.11,30.05,10,10,5,17,2,22,0.05,3,Rain-Thunderstorm,233
2013-6-22,88,79,69,75,72,68,100,80,59,30.14,30.10,30.07,10,8,2,15,5,18,0.00,1,,84
2013-6-23,89,81,73,75,74,70,93,78,63,30.17,30.12,30.08,10,10,10,16,8,21,T,2,,114
2013-6-24,89,82,74,74,73,69,88,73,57,30.20,30.15,30.11,10,10,9,17,7,21,T,2,Rain,110
2013-6-25,89,84,78,76,74,73,85,74,63,30.17,30.12,30.07,10,10,10,16,8,24,0.00,1,,102
2013-6-26,90,83,75,77,75,73,100,82,63,30.09,30.07,30.03,10,10,2,18,6,23,0.05,3,Rain-Thunderstorm,152
2013-6-27,90,81,71,76,73,70,100,80,59,30.07,30.02,29.96,10,6,0,16,5,21,0.00,1,Fog,162
2013-6-28,95,84,73,74,72,68,94,69,43,30.00,29.94,29.86,10,9,1,18,6,23,0.55,2,Rain-Thunderstorm,210
2013-6-29,93,84,74,76,72,70,94,73,52,29.92,29.88,29.84,10,9,2,29,8,36,0.18,3,Rain-Thunderstorm,202
2013-6-30,90,83,75,77,74,72,100,82,64,29.95,29.90,29.86,10,7,0,24,8,31,1.32,5,Fog-Rain-Thunderstorm,199